Time;durP1;ratioP1;P1;durP2;ratioP2;P2;SDS_P1;SDS_P2;PMS_P1;PMS_P2;Temp;Humidity;BMP_temperature;BMP_pressure;BME280_temperature;BME280_humidity;BME280_pressure;Samples;Min_cycle;Max_cycle;Signal;HPM_P1;HPM_P2
2023/03/08 00:00:57;;;;;;;10.50;4.80;;;2.30;93.60;;;;;;5033461;28;20483;-69
2023/03/08 00:03:22;;;;;;;12.00;5.10;;;2.30;93.60;;;;;;5032988;28;20551;-69
2023/03/08 00:05:48;;;;;;;6.70;3.80;;;2.30;93.70;;;;;;5033611;28;20277;-69
2023/03/08 00:08:15;;;;;;;6.93;4.30;;;2.30;93.70;;;;;;5033389;28;20214;-69
2023/03/08 00:10:41;;;;;;;10.33;4.90;;;2.30;93.70;;;;;;5033262;28;20182;-69
2023/03/08 00:13:06;;;;;;;10.10;4.10;;;2.30;93.70;;;;;;5033035;28;20954;-69
2023/03/08 00:15:32;;;;;;;12.13;5.27;;;2.40;93.70;;;;;;5033615;28;20186;-69
2023/03/08 00:17:58;;;;;;;7.90;4.40;;;2.40;93.60;;;;;;5033109;28;20701;-69
2023/03/08 00:20:23;;;;;;;11.43;4.33;;;2.40;93.60;;;;;;5033842;28;20328;-69
2023/03/08 00:22:49;;;;;;;8.83;4.03;;;2.40;93.60;;;;;;5032548;28;20588;-69
2023/03/08 00:25:15;;;;;;;8.97;4.37;;;2.40;93.70;;;;;;5033279;28;20665;-69
2023/03/08 00:27:41;;;;;;;12.33;5.00;;;2.40;93.70;;;;;;5033180;28;20213;-69
2023/03/08 00:30:08;;;;;;;11.20;4.30;;;2.40;93.80;;;;;;5029744;28;20473;-69
2023/03/08 00:32:33;;;;;;;14.00;4.80;;;2.30;93.80;;;;;;5024924;28;20428;-69
2023/03/08 00:34:59;;;;;;;10.60;4.57;;;2.30;93.80;;;;;;5031462;28;20508;-69
2023/03/08 00:37:24;;;;;;;9.77;4.20;;;2.20;93.80;;;;;;5026838;28;20565;-70
2023/03/08 00:39:51;;;;;;;12.30;4.60;;;2.20;93.90;;;;;;5034427;28;20190;-69
2023/03/08 00:42:18;;;;;;;10.23;4.33;;;2.10;94.00;;;;;;5032528;28;20281;-69
2023/03/08 00:44:44;;;;;;;10.93;4.50;;;2.10;94.40;;;;;;5032683;28;20959;-69
2023/03/08 00:47:09;;;;;;;8.13;4.10;;;2.10;94.20;;;;;;5032637;28;20433;-70
2023/03/08 00:49:35;;;;;;;11.03;3.53;;;2.00;94.20;;;;;;5032509;28;20309;-70
2023/03/08 00:52:01;;;;;;;10.40;4.30;;;2.00;94.40;;;;;;5029989;28;20187;-70
2023/03/08 00:54:28;;;;;;;11.53;3.30;;;1.90;94.30;;;;;;5032277;28;20194;-69
2023/03/08 00:56:53;;;;;;;9.00;4.80;;;1.90;94.40;;;;;;5031936;28;20205;-69
2023/03/08 00:59:19;;;;;;;9.33;5.30;;;1.80;94.40;;;;;;5032509;28;20428;-69
2023/03/08 01:01:45;;;;;;;7.60;3.63;;;1.80;94.60;;;;;;5031943;28;20647;-69
2023/03/08 01:04:11;;;;;;;9.83;4.20;;;1.80;94.60;;;;;;5032748;28;20571;-69
2023/03/08 01:06:38;;;;;;;12.73;4.87;;;1.80;94.70;;;;;;5032763;28;20248;-69
2023/03/08 01:09:04;;;;;;;8.20;4.40;;;1.80;94.80;;;;;;5032469;28;20796;-70
2023/03/08 01:11:30;;;;;;;14.90;5.43;;;1.70;94.80;;;;;;5032219;28;20422;-70
2023/03/08 01:13:55;;;;;;;15.97;5.87;;;1.70;94.90;;;;;;5032595;28;20182;-69
2023/03/08 01:16:26;;;;;;;9.23;4.47;;;1.70;95.00;;;;;;5031831;28;20448;-69
2023/03/08 01:18:53;;;;;;;9.47;3.90;;;1.70;95.00;;;;;;5032572;28;20182;-70
2023/03/08 01:21:19;;;;;;;12.37;4.80;;;1.60;95.10;;;;;;5031786;28;20478;-69
2023/03/08 01:23:45;;;;;;;13.73;5.50;;;1.60;95.10;;;;;;5031557;28;20441;-69
2023/03/08 01:26:17;;;;;;;8.90;4.70;;;1.60;95.20;;;;;;5024517;28;20449;-70
2023/03/08 01:28:43;;;;;;;13.17;5.90;;;1.50;95.20;;;;;;5032111;28;20472;-70
2023/03/08 01:31:15;;;;;;;9.47;4.70;;;1.50;95.30;;;;;;5027617;28;20754;-70
2023/03/08 01:33:41;;;;;;;11.03;4.83;;;1.50;95.40;;;;;;5031539;28;20417;-69
2023/03/08 01:36:08;;;;;;;18.37;5.23;;;1.40;95.50;;;;;;5031963;28;20420;-70
2023/03/08 01:38:34;;;;;;;10.40;4.90;;;1.40;95.50;;;;;;5037798;28;20451;-69
2023/03/08 01:41:04;;;;;;;16.40;5.80;;;1.30;95.60;;;;;;5031830;28;20479;-69
2023/03/08 01:43:36;;;;;;;13.77;4.47;;;1.30;95.70;;;;;;5031343;28;20409;-70
2023/03/08 01:46:18;;;;;;;4.93;3.33;;;1.20;95.80;;;;;;5031454;28;20513;-69
2023/03/08 01:48:47;;;;;;;12.63;4.33;;;1.20;95.90;;;;;;5031666;28;21129;-70
2023/03/08 01:51:19;;;;;;;12.03;5.07;;;1.20;96.00;;;;;;5031780;28;20525;-69
2023/03/08 01:53:45;;;;;;;10.23;4.60;;;1.20;96.00;;;;;;5031310;28;20423;-69
2023/03/08 01:56:14;;;;;;;6.63;4.07;;;1.20;96.00;;;;;;5031919;28;20676;-69
2023/03/08 01:58:43;;;;;;;10.70;5.13;;;1.10;96.20;;;;;;5031614;28;20898;-70
2023/03/08 02:01:09;;;;;;;14.03;5.10;;;1.10;96.20;;;;;;5033314;28;20455;-69
2023/03/08 02:03:35;;;;;;;10.20;4.80;;;1.00;96.30;;;;;;5030857;28;20453;-69
2023/03/08 02:06:02;;;;;;;11.13;4.93;;;1.00;96.40;;;;;;5031310;28;20420;-69
2023/03/08 02:08:29;;;;;;;6.77;3.30;;;1.00;96.50;;;;;;5031473;28;20202;-69
2023/03/08 02:10:56;;;;;;;14.93;5.60;;;1.10;96.50;;;;;;5031161;28;20409;-69
2023/03/08 02:13:23;;;;;;;12.20;4.87;;;1.10;96.40;;;;;;5030926;28;20421;-70
2023/03/08 02:15:51;;;;;;;7.90;4.30;;;1.10;96.60;;;;;;5031073;28;20421;-69
2023/03/08 02:18:17;;;;;;;13.03;4.20;;;1.10;96.50;;;;;;5031061;28;20432;-70
2023/03/08 02:20:42;;;;;;;9.00;4.23;;;1.10;96.40;;;;;;5030901;28;20542;-70
2023/03/08 02:23:08;;;;;;;7.03;3.13;;;1.10;96.40;;;;;;5030857;28;20636;-69
2023/03/08 02:25:33;;;;;;;13.73;5.10;;;1.20;96.40;;;;;;5030797;28;20182;-70
2023/03/08 02:28:00;;;;;;;12.43;4.00;;;1.20;96.30;;;;;;5030804;28;20537;-69
2023/03/08 02:30:31;;;;;;;13.13;5.70;;;1.20;96.40;;;;;;5031001;28;20182;-69
2023/03/08 02:32:56;;;;;;;6.50;4.37;;;1.20;96.30;;;;;;5030094;28;20504;-69
2023/03/08 02:35:22;;;;;;;6.53;4.13;;;1.30;96.30;;;;;;5031267;28;20875;-69
2023/03/08 02:37:48;;;;;;;11.63;4.87;;;1.40;96.10;;;;;;5030889;28;20662;-70
2023/03/08 02:40:14;;;;;;;9.70;3.80;;;1.40;95.90;;;;;;5031084;28;20194;-69
2023/03/08 02:42:39;;;;;;;12.10;4.33;;;1.50;95.90;;;;;;5030283;28;20766;-70
2023/03/08 02:45:06;;;;;;;12.43;4.90;;;1.50;95.90;;;;;;5031688;28;20450;-69
2023/03/08 02:47:32;;;;;;;11.83;4.33;;;1.50;95.90;;;;;;5031293;28;20214;-70
2023/03/08 02:49:58;;;;;;;8.73;4.10;;;1.50;95.90;;;;;;5031118;28;20541;-68
2023/03/08 02:52:23;;;;;;;7.23;4.13;;;1.50;95.70;;;;;;5030056;28;20453;-68
2023/03/08 02:54:49;;;;;;;15.13;5.07;;;1.50;95.80;;;;;;5031152;28;20175;-68
2023/03/08 02:57:14;;;;;;;8.50;4.70;;;1.60;95.80;;;;;;5031270;28;20259;-68
2023/03/08 02:59:40;;;;;;;11.90;5.30;;;1.60;95.70;;;;;;5031078;28;20193;-68
2023/03/08 03:02:06;;;;;;;12.27;4.90;;;1.60;95.70;;;;;;5033887;28;20186;-68
2023/03/08 03:04:33;;;;;;;8.60;4.17;;;1.60;95.60;;;;;;5031067;28;20269;-68
2023/03/08 03:06:59;;;;;;;8.17;4.40;;;1.60;95.60;;;;;;5031211;28;20632;-68
2023/03/08 03:09:26;;;;;;;10.23;4.40;;;1.60;95.70;;;;;;5030801;28;20812;-68
2023/03/08 03:11:51;;;;;;;11.00;3.80;;;1.60;95.60;;;;;;5030637;28;20936;-68
2023/03/08 03:14:17;;;;;;;12.07;5.13;;;1.70;95.50;;;;;;5031685;28;20421;-68
2023/03/08 03:16:43;;;;;;;9.50;4.37;;;1.70;95.40;;;;;;5030722;28;20669;-68
2023/03/08 03:19:08;;;;;;;7.70;3.60;;;1.70;95.40;;;;;;5028935;28;20262;-68
2023/03/08 03:21:34;;;;;;;7.87;4.30;;;1.70;95.20;;;;;;5033758;28;20194;-68
2023/03/08 03:24:00;;;;;;;8.77;3.67;;;1.80;95.30;;;;;;5031940;28;20258;-68
2023/03/08 03:26:26;;;;;;;9.70;4.80;;;1.70;95.30;;;;;;5034955;28;20179;-68
2023/03/08 03:28:54;;;;;;;7.13;4.47;;;1.70;95.40;;;;;;5035172;28;20202;-68
2023/03/08 03:31:21;;;;;;;11.47;4.97;;;1.70;95.50;;;;;;5034273;28;21008;-68
2023/03/08 03:33:48;;;;;;;8.53;4.80;;;1.70;95.50;;;;;;5034692;28;20413;-68
2023/03/08 03:36:17;;;;;;;11.90;4.60;;;1.60;95.50;;;;;;5034831;28;20928;-68
2023/03/08 03:38:43;;;;;;;15.37;4.53;;;1.60;95.60;;;;;;5036728;28;20452;-68
2023/03/08 03:41:14;;;;;;;9.23;4.43;;;1.60;95.60;;;;;;5034572;28;20518;-68
2023/03/08 03:43:40;;;;;;;12.63;5.30;;;1.60;95.60;;;;;;5034551;28;20415;-68
2023/03/08 03:46:10;;;;;;;7.67;3.90;;;1.50;95.60;;;;;;5034346;28;20936;-68
2023/03/08 03:48:36;;;;;;;5.53;3.10;;;1.50;95.70;;;;;;5034728;28;20580;-68
2023/03/08 03:51:04;;;;;;;8.40;4.33;;;1.50;95.70;;;;;;5034434;28;20409;-68
2023/03/08 03:53:31;;;;;;;7.50;3.60;;;1.50;95.90;;;;;;5034162;28;20416;-68
2023/03/08 03:56:05;;;;;;;11.43;4.30;;;1.50;95.80;;;;;;5034565;28;20524;-68
2023/03/08 03:58:31;;;;;;;12.37;5.60;;;1.50;95.80;;;;;;5032398;28;20409;-68
2023/03/08 04:00:57;;;;;;;14.50;4.20;;;1.50;95.90;;;;;;5034722;28;20420;-68
2023/03/08 04:03:22;;;;;;;11.10;4.87;;;1.50;96.00;;;;;;5040142;28;20277;-68
2023/03/08 04:05:48;;;;;;;9.97;4.63;;;1.50;95.90;;;;;;5034254;28;20447;-68
2023/03/08 04:08:14;;;;;;;7.20;4.07;;;1.50;95.90;;;;;;5034386;28;20193;-68
2023/03/08 04:10:39;;;;;;;8.90;4.33;;;1.50;96.00;;;;;;5034183;28;20209;-69
2023/03/08 04:13:05;;;;;;;17.20;5.20;;;1.50;96.00;;;;;;5034116;28;20171;-68
2023/03/08 04:15:31;;;;;;;7.57;3.73;;;1.50;96.10;;;;;;5034229;28;20183;-68
2023/03/08 04:17:56;;;;;;;14.37;4.70;;;1.50;96.10;;;;;;5034036;28;20174;-68
2023/03/08 04:20:23;;;;;;;11.87;5.03;;;1.50;96.20;;;;;;5034148;28;20543;-69
2023/03/08 04:22:48;;;;;;;9.10;4.20;;;1.40;96.20;;;;;;5033414;28;20197;-68
2023/03/08 04:25:14;;;;;;;16.00;5.70;;;1.40;96.20;;;;;;5033832;28;20425;-68
2023/03/08 04:27:40;;;;;;;11.47;4.90;;;1.40;96.30;;;;;;5033810;28;20166;-68
2023/03/08 04:30:06;;;;;;;11.80;5.23;;;1.40;96.40;;;;;;5033816;28;20206;-68
2023/03/08 04:32:32;;;;;;;8.63;3.47;;;1.30;96.40;;;;;;5036894;28;20562;-69
2023/03/08 04:34:58;;;;;;;9.40;4.13;;;1.40;96.50;;;;;;5033442;28;20451;-67
2023/03/08 04:37:24;;;;;;;10.00;4.00;;;1.40;96.30;;;;;;5032900;28;20651;-68
2023/03/08 04:39:50;;;;;;;12.20;4.70;;;1.40;96.30;;;;;;5033164;28;20543;-68
2023/03/08 04:42:15;;;;;;;9.50;4.87;;;1.50;96.30;;;;;;5032567;28;20433;-68
2023/03/08 04:44:41;;;;;;;13.27;5.20;;;1.50;96.20;;;;;;5034951;28;20792;-68
2023/03/08 04:47:07;;;;;;;15.10;4.40;;;1.50;96.20;;;;;;5034881;28;20201;-68
2023/03/08 04:49:32;;;;;;;8.83;4.13;;;1.60;96.10;;;;;;5033060;28;20198;-68
2023/03/08 04:51:58;;;;;;;12.73;4.53;;;1.60;96.20;;;;;;5031234;28;20191;-68
2023/03/08 04:54:23;;;;;;;12.73;4.10;;;1.70;96.00;;;;;;5032713;28;20635;-68
2023/03/08 04:56:49;;;;;;;15.13;5.30;;;1.80;96.00;;;;;;5032945;28;20184;-68
2023/03/08 04:59:15;;;;;;;10.70;4.57;;;1.80;95.90;;;;;;5032017;28;20205;-68
2023/03/08 05:01:41;;;;;;;9.07;4.60;;;1.90;95.90;;;;;;5032848;28;20214;-69
2023/03/08 05:04:09;;;;;;;11.73;4.40;;;1.80;96.00;;;;;;5032907;28;20170;-68
2023/03/08 05:06:35;;;;;;;9.30;4.57;;;1.90;96.00;;;;;;5032447;28;20441;-69
2023/03/08 05:09:01;;;;;;;10.53;5.20;;;1.90;96.00;;;;;;5032527;28;20878;-68
2023/03/08 05:11:27;;;;;;;12.47;5.40;;;1.90;95.90;;;;;;5032276;28;20178;-69
2023/03/08 05:13:55;;;;;;;8.93;4.50;;;1.90;96.00;;;;;;5032405;28;20182;-69
2023/03/08 05:16:22;;;;;;;11.17;5.03;;;1.90;96.10;;;;;;5031943;28;20405;-69
2023/03/08 05:18:48;;;;;;;12.23;4.50;;;2.00;96.00;;;;;;5032515;28;20492;-69
2023/03/08 05:21:17;;;;;;;12.13;5.83;;;2.00;95.90;;;;;;5031982;28;20557;-68
2023/03/08 05:23:42;;;;;;;8.20;4.30;;;2.00;95.90;;;;;;5031872;28;21081;-68
2023/03/08 05:26:10;;;;;;;9.67;4.97;;;2.00;96.00;;;;;;5031849;28;20422;-69
2023/03/08 05:28:36;;;;;;;10.40;5.17;;;2.00;96.00;;;;;;5036831;28;20198;-68
2023/03/08 05:31:11;;;;;;;9.73;5.20;;;2.00;96.00;;;;;;5031463;28;20936;-68
2023/03/08 05:33:37;;;;;;;11.47;4.53;;;2.00;96.10;;;;;;5031750;28;20455;-68
2023/03/08 05:36:04;;;;;;;11.47;4.37;;;2.00;95.90;;;;;;5031965;28;20755;-69
2023/03/08 05:38:30;;;;;;;11.70;5.63;;;2.10;95.90;;;;;;5031930;28;20224;-69
2023/03/08 05:41:04;;;;;;;11.27;5.30;;;2.10;96.00;;;;;;5032231;28;20421;-68
2023/03/08 05:43:30;;;;;;;10.40;5.40;;;2.10;95.90;;;;;;5031164;28;20421;-69
2023/03/08 05:46:02;;;;;;;11.53;5.53;;;2.10;96.10;;;;;;5032131;28;20417;-68
2023/03/08 05:48:29;;;;;;;9.60;4.30;;;2.10;96.20;;;;;;5031960;28;20276;-69
2023/03/08 05:50:54;;;;;;;14.43;5.33;;;2.10;96.20;;;;;;5032295;28;20790;-68
2023/03/08 05:53:21;;;;;;;12.30;5.47;;;2.20;96.30;;;;;;5031276;28;20401;-68
2023/03/08 05:55:48;;;;;;;12.07;5.43;;;2.20;96.40;;;;;;5031575;28;20226;-68
2023/03/08 05:58:14;;;;;;;10.60;5.23;;;2.30;96.30;;;;;;5031199;28;20449;-68
2023/03/08 06:00:40;;;;;;;10.90;5.57;;;2.30;96.40;;;;;;5031532;28;20183;-68
2023/03/08 06:03:06;;;;;;;16.87;6.00;;;2.30;96.40;;;;;;5032679;28;20527;-68
2023/03/08 06:05:32;;;;;;;17.00;8.40;;;2.30;96.40;;;;;;5031639;28;20417;-68
2023/03/08 06:07:58;;;;;;;13.53;6.17;;;2.30;96.50;;;;;;5030850;28;20215;-68
2023/03/08 06:10:24;;;;;;;20.63;6.80;;;2.40;96.50;;;;;;5030206;28;20492;-69
2023/03/08 06:12:50;;;;;;;15.57;6.33;;;2.40;96.60;;;;;;5030974;28;20453;-68
2023/03/08 06:15:16;;;;;;;13.80;6.23;;;2.40;96.60;;;;;;5030847;28;20237;-68
2023/03/08 06:17:41;;;;;;;13.83;6.57;;;2.40;96.70;;;;;;5031316;28;20268;-68
2023/03/08 06:20:08;;;;;;;27.57;7.40;;;2.40;96.80;;;;;;5031021;28;20198;-68
2023/03/08 06:22:34;;;;;;;13.90;6.23;;;2.40;96.90;;;;;;5030517;28;20193;-68
2023/03/08 06:25:00;;;;;;;17.93;6.20;;;2.40;96.70;;;;;;5030708;28;21127;-68
2023/03/08 06:27:26;;;;;;;19.37;6.77;;;2.40;96.80;;;;;;5031031;28;20437;-68
2023/03/08 06:29:52;;;;;;;11.73;5.37;;;2.60;97.00;;;;;;5030600;28;20828;-69
2023/03/08 06:32:17;;;;;;;13.83;6.43;;;2.50;97.00;;;;;;5024635;28;20504;-70
2023/03/08 06:34:44;;;;;;;11.57;5.50;;;2.50;97.10;;;;;;5030516;28;20565;-69
2023/03/08 06:37:09;;;;;;;15.80;6.20;;;2.50;97.10;;;;;;5029702;28;20171;-68
2023/03/08 06:39:35;;;;;;;12.97;6.27;;;2.50;97.10;;;;;;5029762;28;20440;-68
2023/03/08 06:42:01;;;;;;;13.70;7.07;;;2.60;97.20;;;;;;5029631;28;20436;-68
2023/03/08 06:44:28;;;;;;;13.73;5.73;;;2.60;97.20;;;;;;5025251;28;20182;-68
2023/03/08 06:46:54;;;;;;;19.03;8.23;;;2.60;97.20;;;;;;5029581;28;20433;-68
2023/03/08 06:49:19;;;;;;;14.80;5.33;;;2.60;97.30;;;;;;5029891;28;20461;-68
2023/03/08 06:51:45;;;;;;;21.93;7.03;;;2.70;97.30;;;;;;5029476;28;20219;-69
2023/03/08 06:54:16;;;;;;;17.53;8.43;;;2.70;97.30;;;;;;5028517;28;20189;-68
2023/03/08 06:56:43;;;;;;;18.57;6.73;;;2.70;97.40;;;;;;5028964;28;20190;-68
2023/03/08 06:59:08;;;;;;;21.33;7.40;;;2.80;97.30;;;;;;5030466;28;20440;-68
2023/03/08 07:01:34;;;;;;;13.93;7.07;;;2.80;97.30;;;;;;5029728;28;20902;-69
2023/03/08 07:03:59;;;;;;;13.30;5.73;;;2.90;97.30;;;;;;5030423;28;20194;-68
2023/03/08 07:06:25;;;;;;;14.90;6.43;;;2.90;97.40;;;;;;5030649;28;20649;-69
2023/03/08 07:08:51;;;;;;;16.60;7.77;;;3.00;97.20;;;;;;5030468;28;20206;-68
2023/03/08 07:11:16;;;;;;;14.17;5.90;;;3.00;97.40;;;;;;5030248;28;20603;-68
2023/03/08 07:13:42;;;;;;;15.27;6.60;;;3.00;97.30;;;;;;5012351;28;20189;-68
2023/03/08 07:16:12;;;;;;;16.60;6.43;;;3.00;97.20;;;;;;5030230;28;20258;-68
2023/03/08 07:18:38;;;;;;;12.90;5.33;;;3.00;97.60;;;;;;5030542;28;20186;-68
2023/03/08 07:21:05;;;;;;;16.03;6.27;;;3.10;97.50;;;;;;5034097;28;20479;-68
2023/03/08 07:23:30;;;;;;;14.80;6.27;;;3.10;97.70;;;;;;5030189;28;20417;-68
2023/03/08 07:25:56;;;;;;;15.07;5.33;;;3.10;97.80;;;;;;5030391;28;20512;-68
2023/03/08 07:28:22;;;;;;;10.33;4.50;;;3.20;98.30;;;;;;5030427;28;20232;-69
2023/03/08 07:30:50;;;;;;;9.30;4.80;;;3.20;98.60;;;;;;5030639;28;20181;-68
2023/03/08 07:33:16;;;;;;;12.37;4.90;;;3.20;98.90;;;;;;5029594;28;20353;-68
2023/03/08 07:35:43;;;;;;;10.43;4.37;;;3.20;99.10;;;;;;5028762;28;20429;-68
2023/03/08 07:38:10;;;;;;;13.90;5.97;;;3.20;99.20;;;;;;5026555;28;20433;-68
2023/03/08 07:40:35;;;;;;;8.90;5.40;;;3.20;99.30;;;;;;5028017;28;20905;-68
2023/03/08 07:43:01;;;;;;;17.20;5.83;;;3.20;99.40;;;;;;5028220;28;20535;-68
2023/03/08 07:45:27;;;;;;;12.10;6.63;;;3.20;99.40;;;;;;5028945;28;20178;-68
2023/03/08 07:47:53;;;;;;;7.80;4.47;;;3.20;99.40;;;;;;5010960;28;20563;-68
2023/03/08 07:50:19;;;;;;;9.30;4.97;;;3.20;99.50;;;;;;5028533;28;20472;-69
2023/03/08 07:52:45;;;;;;;16.63;6.23;;;3.20;99.60;;;;;;5028673;28;20213;-68
2023/03/08 07:55:11;;;;;;;12.53;6.30;;;3.20;99.50;;;;;;5028370;28;20440;-68
2023/03/08 07:57:37;;;;;;;11.00;5.43;;;3.20;99.40;;;;;;5028994;28;20191;-68
2023/03/08 08:00:07;;;;;;;12.87;6.07;;;3.20;99.50;;;;;;5028484;28;20819;-69
2023/03/08 08:02:36;;;;;;;10.80;4.03;;;3.30;99.40;;;;;;5027684;28;20182;-69
2023/03/08 08:05:03;;;;;;;10.67;5.17;;;3.40;99.60;;;;;;5028744;28;20515;-68
2023/03/08 08:07:30;;;;;;;11.90;4.77;;;3.40;99.40;;;;;;5031164;28;20421;-69
2023/03/08 08:09:55;;;;;;;11.13;5.50;;;3.50;99.50;;;;;;5032071;28;20567;-68
2023/03/08 08:12:22;;;;;;;11.07;5.27;;;3.50;99.20;;;;;;5031176;28;20503;-68
2023/03/08 08:14:51;;;;;;;13.57;7.00;;;3.50;99.50;;;;;;5031726;28;20658;-68
2023/03/08 08:17:18;;;;;;;18.20;5.70;;;3.60;99.60;;;;;;5030922;28;20424;-68
2023/03/08 08:19:43;;;;;;;11.77;4.73;;;3.70;99.40;;;;;;5031597;28;20433;-68
2023/03/08 08:22:09;;;;;;;16.43;5.83;;;3.80;99.40;;;;;;5031649;28;20423;-68
2023/03/08 08:24:35;;;;;;;14.80;6.17;;;3.80;99.50;;;;;;5032405;28;20190;-69
2023/03/08 08:27:00;;;;;;;12.60;5.83;;;3.90;99.60;;;;;;5031793;28;20183;-68
2023/03/08 08:29:26;;;;;;;16.00;6.00;;;4.00;99.80;;;;;;5031847;28;20214;-69
2023/03/08 08:31:52;;;;;;;12.80;6.77;;;4.00;99.80;;;;;;5034078;28;20595;-68
2023/03/08 08:34:18;;;;;;;11.53;5.90;;;4.10;99.70;;;;;;5031606;28;20183;-68
2023/03/08 08:36:44;;;;;;;13.57;6.23;;;4.10;99.60;;;;;;5031336;28;20183;-69
2023/03/08 08:39:10;;;;;;;9.50;6.00;;;4.00;99.40;;;;;;5031679;28;20435;-69
2023/03/08 08:41:36;;;;;;;11.10;5.43;;;4.10;99.20;;;;;;5031265;28;20428;-69
2023/03/08 08:44:02;;;;;;;9.07;5.33;;;4.20;99.20;;;;;;5031977;28;20195;-68
2023/03/08 08:46:28;;;;;;;13.93;6.20;;;4.40;99.50;;;;;;5031352;28;20240;-68
2023/03/08 08:48:54;;;;;;;7.93;4.73;;;4.60;99.70;;;;;;5031981;28;20464;-68
2023/03/08 08:51:20;;;;;;;7.93;4.03;;;4.70;99.30;;;;;;5033367;28;20190;-69
2023/03/08 08:53:46;;;;;;;11.63;5.80;;;4.80;99.30;;;;;;5031241;28;20425;-68
2023/03/08 08:56:20;;;;;;;10.60;5.53;;;4.90;99.10;;;;;;5030574;28;20213;-68
2023/03/08 08:58:47;;;;;;;13.57;5.77;;;4.90;98.90;;;;;;5026168;28;20273;-68
2023/03/08 09:01:24;;;;;;;8.73;5.27;;;4.90;99.00;;;;;;5030539;28;21217;-68
2023/03/08 09:03:50;;;;;;;12.03;6.67;;;5.00;98.90;;;;;;5030728;28;20423;-69
2023/03/08 09:06:18;;;;;;;10.80;5.23;;;5.00;99.30;;;;;;5031032;28;20447;-68
2023/03/08 09:08:47;;;;;;;16.13;6.17;;;5.00;99.70;;;;;;5030770;28;20457;-68
2023/03/08 09:11:13;;;;;;;14.30;6.50;;;4.90;99.90;;;;;;5030389;28;20421;-68
2023/03/08 09:13:40;;;;;;;9.87;4.63;;;4.90;99.90;;;;;;5030378;28;20452;-68
2023/03/08 09:16:06;;;;;;;7.87;5.00;;;4.90;99.90;;;;;;5030454;28;20179;-68
2023/03/08 09:18:32;;;;;;;12.83;6.37;;;4.90;99.90;;;;;;5030510;28;20428;-68
2023/03/08 09:21:00;;;;;;;11.30;5.43;;;5.00;99.90;;;;;;5031227;28;20283;-68
2023/03/08 09:23:27;;;;;;;13.50;5.67;;;5.00;99.90;;;;;;5029440;28;20194;-68
2023/03/08 09:25:57;;;;;;;12.90;5.53;;;5.10;99.90;;;;;;5030268;28;20425;-68
2023/03/08 09:28:23;;;;;;;9.83;5.10;;;5.10;99.90;;;;;;5030850;28;20433;-69
2023/03/08 09:30:48;;;;;;;15.50;6.00;;;5.20;99.90;;;;;;5034074;28;21050;-69
2023/03/08 09:33:14;;;;;;;15.80;5.33;;;5.20;99.90;;;;;;5031050;28;20491;-69
2023/03/08 09:35:40;;;;;;;13.33;5.93;;;5.20;99.90;;;;;;5030866;28;20186;-69
2023/03/08 09:38:05;;;;;;;11.73;5.50;;;5.30;99.90;;;;;;5030633;28;20290;-68
2023/03/08 09:40:42;;;;;;;7.37;3.80;;;5.40;99.90;;;;;;5030465;28;20218;-68
2023/03/08 09:43:13;;;;;;;12.33;5.57;;;5.50;99.90;;;;;;5030527;28;20655;-68
2023/03/08 09:45:39;;;;;;;9.83;5.33;;;5.60;99.90;;;;;;5031030;28;20445;-68
2023/03/08 09:48:22;;;;;;;10.10;4.50;;;5.70;99.90;;;;;;5030153;28;20425;-69
2023/03/08 09:50:53;;;;;;;9.47;4.13;;;5.70;99.90;;;;;;5025560;28;20268;-68
2023/03/08 09:53:53;;;;;;;12.37;4.10;;;5.80;99.90;;;;;;5030190;28;21735;-68
2023/03/08 09:56:28;;;;;;;9.07;4.50;;;5.80;99.90;;;;;;5026647;28;20483;-68
2023/03/08 09:59:03;;;;;;;10.07;4.57;;;5.90;99.90;;;;;;5030686;28;20412;-69
2023/03/08 10:01:42;;;;;;;5.93;3.47;;;5.90;99.90;;;;;;5024794;28;20412;-68
2023/03/08 10:04:20;;;;;;;13.40;4.83;;;6.10;99.90;;;;;;5030170;28;20428;-68
2023/03/08 10:07:23;;;;;;;8.50;4.40;;;6.10;99.90;;;;;;5030064;28;20904;-68
2023/03/08 10:10:05;;;;;;;10.93;3.63;;;6.00;99.90;;;;;;4995519;28;20468;-68
2023/03/08 10:13:15;;;;;;;7.13;3.80;;;6.00;99.90;;;;;;5027713;28;20432;-68
2023/03/08 10:15:44;;;;;;;5.07;2.97;;;6.10;99.90;;;;;;5027857;28;20428;-68
2023/03/08 10:18:16;;;;;;;9.00;3.60;;;6.10;99.90;;;;;;5028659;28;20921;-68
2023/03/08 10:20:42;;;;;;;7.13;3.33;;;6.10;99.90;;;;;;5029476;28;20464;-68
2023/03/08 10:23:20;;;;;;;8.63;4.17;;;6.20;99.90;;;;;;5028845;28;20412;-68
2023/03/08 10:25:48;;;;;;;10.40;3.90;;;6.20;99.90;;;;;;5021131;28;20432;-68
2023/03/08 10:28:15;;;;;;;6.80;4.00;;;6.40;99.90;;;;;;5029930;28;20462;-68
2023/03/08 10:30:45;;;;;;;10.47;3.77;;;6.40;99.90;;;;;;5031071;28;20421;-68
2023/03/08 10:33:13;;;;;;;3.90;2.43;;;6.50;99.90;;;;;;5028286;28;20413;-68
2023/03/08 10:35:57;;;;;;;7.80;3.40;;;6.60;99.90;;;;;;5029201;28;20991;-68
2023/03/08 10:38:25;;;;;;;9.23;2.73;;;6.80;99.90;;;;;;5029256;28;20463;-68
2023/03/08 10:40:58;;;;;;;4.37;2.07;;;7.10;99.90;;;;;;5029138;28;20421;-68
2023/03/08 10:43:28;;;;;;;4.13;2.03;;;7.30;99.90;;;;;;5029064;28;20492;-68
2023/03/08 10:46:09;;;;;;;4.27;1.93;;;7.50;99.90;;;;;;5029817;28;20456;-69
2023/03/08 10:48:35;;;;;;;5.03;2.13;;;7.60;99.90;;;;;;5025742;28;20467;-68
2023/03/08 10:51:04;;;;;;;1.83;1.20;;;7.70;99.90;;;;;;5029192;28;20503;-69
2023/03/08 10:53:30;;;;;;;2.60;1.43;;;7.60;99.90;;;;;;5029075;28;20643;-69
2023/03/08 10:55:59;;;;;;;3.00;1.10;;;7.70;99.90;;;;;;5029092;28;20500;-68
2023/03/08 10:58:27;;;;;;;2.13;1.07;;;7.80;99.90;;;;;;5026459;28;20475;-68
2023/03/08 11:00:54;;;;;;;2.50;0.93;;;7.80;99.90;;;;;;5029535;28;20804;-68
2023/03/08 11:03:23;;;;;;;2.10;1.00;;;7.90;99.90;;;;;;5025856;28;20421;-68
2023/03/08 11:05:52;;;;;;;2.90;1.00;;;8.00;99.90;;;;;;5029241;28;20559;-69
2023/03/08 11:08:20;;;;;;;1.57;0.73;;;8.20;99.90;;;;;;5028831;28;20483;-69
2023/03/08 11:10:46;;;;;;;3.20;0.90;;;8.40;99.90;;;;;;5029138;28;20456;-68
2023/03/08 11:13:30;;;;;;;3.43;0.80;;;8.50;99.90;;;;;;5028264;28;20445;-69
2023/03/08 11:16:05;;;;;;;2.80;0.90;;;8.70;99.90;;;;;;5025424;28;20170;-68
2023/03/08 11:18:50;;;;;;;1.60;0.70;;;8.90;99.90;;;;;;5023841;28;20401;-69
2023/03/08 11:21:33;;;;;;;1.80;0.93;;;9.00;99.90;;;;;;5029161;28;20436;-68
2023/03/08 11:24:11;;;;;;;1.27;0.63;;;9.10;99.90;;;;;;5029059;28;20421;-68
2023/03/08 11:26:42;;;;;;;1.77;0.80;;;9.00;99.90;;;;;;5030718;28;20409;-68
2023/03/08 11:29:13;;;;;;;1.50;0.83;;;9.10;99.90;;;;;;5029139;28;20595;-69
2023/03/08 11:32:01;;;;;;;2.97;1.10;;;9.30;99.90;;;;;;5031236;28;20417;-68
2023/03/08 11:34:30;;;;;;;1.20;0.50;;;9.40;99.90;;;;;;5028531;28;20417;-68
2023/03/08 11:37:17;;;;;;;3.57;1.10;;;9.40;99.90;;;;;;5028336;28;20421;-67
2023/03/08 11:40:16;;;;;;;1.67;0.93;;;9.40;99.90;;;;;;5024582;28;20533;-67
2023/03/08 11:43:08;;;;;;;1.67;0.80;;;9.50;99.90;;;;;;4984449;28;20461;-67
2023/03/08 11:46:08;;;;;;;1.50;0.50;;;9.50;99.90;;;;;;4992914;28;20466;-67
2023/03/08 11:49:00;;;;;;;2.00;0.73;;;9.50;99.90;;;;;;5032806;28;20420;-67
2023/03/08 11:51:37;;;;;;;1.20;0.60;;;9.50;99.90;;;;;;5032156;28;20420;-69
2023/03/08 11:54:31;;;;;;;3.10;1.00;;;9.60;99.90;;;;;;5030078;28;20408;-69
2023/03/08 11:57:01;;;;;;;1.20;0.50;;;9.50;99.90;;;;;;5033537;28;20499;-69
2023/03/08 11:59:47;;;;;;;2.07;0.63;;;9.60;99.90;;;;;;5030883;28;20421;-70
2023/03/08 12:02:28;;;;;;;1.20;0.53;;;9.70;99.90;;;;;;5030736;28;20459;-69
2023/03/08 12:05:22;;;;;;;1.30;0.50;;;9.70;99.90;;;;;;5033701;28;20413;-68
2023/03/08 12:08:12;;;;;;;2.70;0.50;;;9.80;99.90;;;;;;5033844;28;20940;-68
2023/03/08 12:10:53;;;;;;;1.20;0.50;;;9.80;99.90;;;;;;5030324;28;20465;-69
2023/03/08 12:13:33;;;;;;;1.20;0.50;;;9.70;99.90;;;;;;5033415;28;20417;-69
2023/03/08 12:16:10;;;;;;;1.63;0.60;;;9.80;99.90;;;;;;5033297;28;20404;-69
2023/03/08 12:18:45;;;;;;;1.63;0.60;;;9.80;99.90;;;;;;5029093;28;20413;-68
2023/03/08 12:21:16;;;;;;;1.20;0.50;;;9.90;99.90;;;;;;5034520;28;20436;-70
2023/03/08 12:23:50;;;;;;;1.53;0.63;;;9.90;99.90;;;;;;5033977;28;20547;-68
2023/03/08 12:26:22;;;;;;;1.30;0.50;;;10.00;99.90;;;;;;5035088;28;20478;-69
2023/03/08 12:28:54;;;;;;;2.27;0.67;;;10.00;99.90;;;;;;5036390;28;20461;-68
2023/03/08 12:31:45;;;;;;;1.53;0.70;;;10.10;99.90;;;;;;5038058;28;20932;-69
2023/03/08 12:34:34;;;;;;;1.20;0.53;;;10.10;99.90;;;;;;5035584;28;20436;-70
2023/03/08 12:37:00;;;;;;;1.20;0.50;;;10.30;99.90;;;;;;5026963;28;20449;-70
2023/03/08 12:39:26;;;;;;;5.50;0.60;;;10.40;99.90;;;;;;5037597;28;20482;-69
2023/03/08 12:42:09;;;;;;;2.23;0.80;;;10.40;99.90;;;;;;5032158;28;20214;-69
2023/03/08 12:44:36;;;;;;;1.20;0.50;;;10.60;99.90;;;;;;5032291;28;20193;-70
2023/03/08 12:47:18;;;;;;;1.30;0.57;;;10.70;99.90;;;;;;5028540;28;20425;-69
2023/03/08 12:49:55;;;;;;;1.40;0.53;;;10.70;99.90;;;;;;5035957;28;20507;-69
2023/03/08 12:52:20;;;;;;;1.80;0.60;;;10.70;99.90;;;;;;5029514;28;20463;-69
2023/03/08 12:55:15;;;;;;;1.50;0.50;;;10.70;99.90;;;;;;5012860;28;20425;-69
2023/03/08 12:57:53;;;;;;;1.30;0.60;;;10.60;99.90;;;;;;5026548;28;20174;-69
2023/03/08 13:00:32;;;;;;;9.13;0.83;;;10.60;99.90;;;;;;5034837;28;20445;-69